sensor_id;sensor_type;location;lat;lon;timestamp;P1;durP1;ratioP1;P2;durP2;ratioP2
14116;SDS011;7137;51.436;6.544;2023-04-15T00:00:09;10.87;;;6.00;;
14116;SDS011;7137;51.436;6.544;2023-04-15T00:03:13;9.70;;;5.73;;
14116;SDS011;7137;51.436;6.544;2023-04-15T00:06:15;9.73;;;6.00;;
14116;SDS011;7137;51.436;6.544;2023-04-15T00:09:17;7.87;;;5.60;;
14116;SDS011;7137;51.436;6.544;2023-04-15T00:12:19;10.83;;;6.30;;
14116;SDS011;7137;51.436;6.544;2023-04-15T00:15:20;9.53;;;6.00;;
14116;SDS011;7137;51.436;6.544;2023-04-15T00:18:24;9.43;;;6.03;;
14116;SDS011;7137;51.436;6.544;2023-04-15T00:21:25;10.77;;;5.93;;
14116;SDS011;7137;51.436;6.544;2023-04-15T00:24:28;11.23;;;6.47;;
14116;SDS011;7137;51.436;6.544;2023-04-15T00:27:30;9.27;;;6.13;;
14116;SDS011;7137;51.436;6.544;2023-04-15T00:30:32;8.27;;;6.30;;
14116;SDS011;7137;51.436;6.544;2023-04-15T00:33:35;8.33;;;5.67;;
14116;SDS011;7137;51.436;6.544;2023-04-15T00:36:36;8.87;;;6.20;;
14116;SDS011;7137;51.436;6.544;2023-04-15T00:39:38;9.60;;;7.10;;
14116;SDS011;7137;51.436;6.544;2023-04-15T00:42:40;10.57;;;6.67;;
14116;SDS011;7137;51.436;6.544;2023-04-15T00:45:41;11.10;;;7.00;;
14116;SDS011;7137;51.436;6.544;2023-04-15T00:48:44;10.70;;;7.27;;
14116;SDS011;7137;51.436;6.544;2023-04-15T00:51:47;9.93;;;6.50;;
14116;SDS011;7137;51.436;6.544;2023-04-15T00:54:48;10.03;;;7.23;;
14116;SDS011;7137;51.436;6.544;2023-04-15T00:57:52;9.03;;;6.63;;
14116;SDS011;7137;51.436;6.544;2023-04-15T01:00:53;11.33;;;6.53;;
14116;SDS011;7137;51.436;6.544;2023-04-15T01:03:57;9.47;;;6.87;;
14116;SDS011;7137;51.436;6.544;2023-04-15T01:06:59;10.17;;;7.10;;
14116;SDS011;7137;51.436;6.544;2023-04-15T01:10:01;10.90;;;7.27;;
14116;SDS011;7137;51.436;6.544;2023-04-15T01:13:03;10.40;;;7.50;;
14116;SDS011;7137;51.436;6.544;2023-04-15T01:16:06;10.27;;;7.23;;
14116;SDS011;7137;51.436;6.544;2023-04-15T01:19:10;10.00;;;7.17;;
14116;SDS011;7137;51.436;6.544;2023-04-15T01:22:12;10.50;;;7.00;;
14116;SDS011;7137;51.436;6.544;2023-04-15T01:25:15;10.57;;;7.27;;
14116;SDS011;7137;51.436;6.544;2023-04-15T01:28:20;9.73;;;7.10;;
14116;SDS011;7137;51.436;6.544;2023-04-15T01:31:22;11.00;;;7.63;;
14116;SDS011;7137;51.436;6.544;2023-04-15T01:34:24;10.70;;;7.20;;
14116;SDS011;7137;51.436;6.544;2023-04-15T01:37:26;10.00;;;7.67;;
14116;SDS011;7137;51.436;6.544;2023-04-15T01:40:27;10.83;;;7.73;;
14116;SDS011;7137;51.436;6.544;2023-04-15T01:43:31;11.50;;;8.57;;
14116;SDS011;7137;51.436;6.544;2023-04-15T01:46:32;11.77;;;8.50;;
14116;SDS011;7137;51.436;6.544;2023-04-15T01:49:34;11.20;;;7.80;;
14116;SDS011;7137;51.436;6.544;2023-04-15T01:52:36;10.43;;;8.10;;
14116;SDS011;7137;51.436;6.544;2023-04-15T01:55:38;13.57;;;9.37;;
14116;SDS011;7137;51.436;6.544;2023-04-15T01:58:41;11.87;;;9.20;;
14116;SDS011;7137;51.436;6.544;2023-04-15T02:01:43;11.43;;;8.90;;
14116;SDS011;7137;51.436;6.544;2023-04-15T02:04:45;12.77;;;9.37;;
14116;SDS011;7137;51.436;6.544;2023-04-15T02:07:47;12.73;;;9.07;;
14116;SDS011;7137;51.436;6.544;2023-04-15T02:10:49;11.33;;;9.23;;
14116;SDS011;7137;51.436;6.544;2023-04-15T02:13:52;10.80;;;8.83;;
14116;SDS011;7137;51.436;6.544;2023-04-15T02:16:54;11.07;;;8.77;;
14116;SDS011;7137;51.436;6.544;2023-04-15T02:19:55;11.43;;;8.90;;
14116;SDS011;7137;51.436;6.544;2023-04-15T02:22:57;12.13;;;9.60;;
14116;SDS011;7137;51.436;6.544;2023-04-15T02:25:58;11.73;;;9.90;;
14116;SDS011;7137;51.436;6.544;2023-04-15T02:29:02;12.80;;;9.50;;
14116;SDS011;7137;51.436;6.544;2023-04-15T02:32:04;11.37;;;9.50;;
14116;SDS011;7137;51.436;6.544;2023-04-15T02:35:06;13.77;;;9.93;;
14116;SDS011;7137;51.436;6.544;2023-04-15T02:38:08;14.97;;;9.97;;
14116;SDS011;7137;51.436;6.544;2023-04-15T02:41:10;12.40;;;10.03;;
14116;SDS011;7137;51.436;6.544;2023-04-15T02:44:14;13.37;;;9.97;;
14116;SDS011;7137;51.436;6.544;2023-04-15T02:47:16;16.93;;;9.83;;
14116;SDS011;7137;51.436;6.544;2023-04-15T02:50:18;14.00;;;10.60;;
14116;SDS011;7137;51.436;6.544;2023-04-15T02:53:20;12.47;;;9.30;;
14116;SDS011;7137;51.436;6.544;2023-04-15T02:56:21;13.90;;;11.10;;
14116;SDS011;7137;51.436;6.544;2023-04-15T02:59:24;12.10;;;9.77;;
14116;SDS011;7137;51.436;6.544;2023-04-15T03:02:26;13.67;;;10.93;;
14116;SDS011;7137;51.436;6.544;2023-04-15T03:05:27;13.37;;;10.93;;
14116;SDS011;7137;51.436;6.544;2023-04-15T03:08:29;14.77;;;11.03;;
14116;SDS011;7137;51.436;6.544;2023-04-15T03:11:31;18.37;;;12.03;;
14116;SDS011;7137;51.436;6.544;2023-04-15T03:14:35;16.83;;;11.87;;
14116;SDS011;7137;51.436;6.544;2023-04-15T03:17:37;15.17;;;11.73;;
14116;SDS011;7137;51.436;6.544;2023-04-15T03:20:38;13.83;;;10.97;;
14116;SDS011;7137;51.436;6.544;2023-04-15T03:23:40;15.67;;;11.53;;
14116;SDS011;7137;51.436;6.544;2023-04-15T03:26:42;14.17;;;11.77;;
14116;SDS011;7137;51.436;6.544;2023-04-15T03:29:48;14.87;;;11.63;;
14116;SDS011;7137;51.436;6.544;2023-04-15T03:32:49;12.20;;;10.80;;
14116;SDS011;7137;51.436;6.544;2023-04-15T03:35:51;14.30;;;10.80;;
14116;SDS011;7137;51.436;6.544;2023-04-15T03:38:54;14.03;;;10.90;;
14116;SDS011;7137;51.436;6.544;2023-04-15T03:41:57;12.83;;;11.00;;
14116;SDS011;7137;51.436;6.544;2023-04-15T03:45:00;12.80;;;10.03;;
14116;SDS011;7137;51.436;6.544;2023-04-15T03:48:02;12.70;;;10.70;;
14116;SDS011;7137;51.436;6.544;2023-04-15T03:51:04;13.70;;;10.57;;
14116;SDS011;7137;51.436;6.544;2023-04-15T03:54:06;15.27;;;9.83;;
14116;SDS011;7137;51.436;6.544;2023-04-15T03:57:07;11.93;;;10.00;;
14116;SDS011;7137;51.436;6.544;2023-04-15T04:00:11;13.07;;;10.43;;
14116;SDS011;7137;51.436;6.544;2023-04-15T04:03:12;12.17;;;9.97;;
14116;SDS011;7137;51.436;6.544;2023-04-15T04:06:14;12.87;;;9.47;;
14116;SDS011;7137;51.436;6.544;2023-04-15T04:09:16;11.07;;;9.50;;
14116;SDS011;7137;51.436;6.544;2023-04-15T04:12:17;12.43;;;9.13;;
14116;SDS011;7137;51.436;6.544;2023-04-15T04:15:20;13.03;;;9.47;;
14116;SDS011;7137;51.436;6.544;2023-04-15T04:18:22;13.20;;;9.70;;
14116;SDS011;7137;51.436;6.544;2023-04-15T04:21:24;14.37;;;10.03;;
14116;SDS011;7137;51.436;6.544;2023-04-15T04:24:25;12.57;;;9.73;;
14116;SDS011;7137;51.436;6.544;2023-04-15T04:27:27;14.30;;;10.60;;
14116;SDS011;7137;51.436;6.544;2023-04-15T04:30:31;12.93;;;10.27;;
14116;SDS011;7137;51.436;6.544;2023-04-15T04:33:33;12.97;;;10.50;;
14116;SDS011;7137;51.436;6.544;2023-04-15T04:36:34;11.83;;;10.07;;
14116;SDS011;7137;51.436;6.544;2023-04-15T04:39:36;13.53;;;10.87;;
14116;SDS011;7137;51.436;6.544;2023-04-15T04:42:38;12.97;;;10.77;;
14116;SDS011;7137;51.436;6.544;2023-04-15T04:45:41;13.83;;;10.97;;
14116;SDS011;7137;51.436;6.544;2023-04-15T04:48:42;11.83;;;10.30;;
14116;SDS011;7137;51.436;6.544;2023-04-15T04:51:44;12.90;;;10.33;;
14116;SDS011;7137;51.436;6.544;2023-04-15T04:54:47;13.03;;;9.80;;
14116;SDS011;7137;51.436;6.544;2023-04-15T04:57:49;11.97;;;10.00;;
14116;SDS011;7137;51.436;6.544;2023-04-15T05:00:52;11.77;;;9.63;;
14116;SDS011;7137;51.436;6.544;2023-04-15T05:03:54;12.13;;;10.13;;
14116;SDS011;7137;51.436;6.544;2023-04-15T05:06:55;11.97;;;9.63;;
14116;SDS011;7137;51.436;6.544;2023-04-15T05:09:57;11.73;;;10.27;;
14116;SDS011;7137;51.436;6.544;2023-04-15T05:12:58;12.77;;;10.20;;
14116;SDS011;7137;51.436;6.544;2023-04-15T05:16:02;13.33;;;9.70;;
14116;SDS011;7137;51.436;6.544;2023-04-15T05:19:03;12.97;;;9.63;;
14116;SDS011;7137;51.436;6.544;2023-04-15T05:22:05;11.60;;;10.17;;
14116;SDS011;7137;51.436;6.544;2023-04-15T05:25:07;12.80;;;10.23;;
14116;SDS011;7137;51.436;6.544;2023-04-15T05:28:09;12.60;;;10.27;;
14116;SDS011;7137;51.436;6.544;2023-04-15T05:31:13;15.07;;;10.43;;
14116;SDS011;7137;51.436;6.544;2023-04-15T05:34:14;12.83;;;10.80;;
14116;SDS011;7137;51.436;6.544;2023-04-15T05:37:16;13.93;;;11.13;;
14116;SDS011;7137;51.436;6.544;2023-04-15T05:40:19;11.60;;;10.40;;
14116;SDS011;7137;51.436;6.544;2023-04-15T05:43:21;11.57;;;10.17;;
14116;SDS011;7137;51.436;6.544;2023-04-15T05:46:24;12.40;;;10.03;;
14116;SDS011;7137;51.436;6.544;2023-04-15T05:49:26;13.53;;;10.77;;
14116;SDS011;7137;51.436;6.544;2023-04-15T05:52:28;12.07;;;10.40;;
14116;SDS011;7137;51.436;6.544;2023-04-15T05:55:29;12.27;;;10.67;;
14116;SDS011;7137;51.436;6.544;2023-04-15T05:58:31;12.50;;;10.73;;
14116;SDS011;7137;51.436;6.544;2023-04-15T06:01:34;14.07;;;10.83;;
14116;SDS011;7137;51.436;6.544;2023-04-15T06:04:36;14.60;;;10.80;;
14116;SDS011;7137;51.436;6.544;2023-04-15T06:07:38;12.40;;;11.10;;
14116;SDS011;7137;51.436;6.544;2023-04-15T06:10:40;16.43;;;11.53;;
14116;SDS011;7137;51.436;6.544;2023-04-15T06:13:41;14.20;;;11.80;;
14116;SDS011;7137;51.436;6.544;2023-04-15T06:16:45;14.00;;;11.80;;
14116;SDS011;7137;51.436;6.544;2023-04-15T06:19:47;13.80;;;12.13;;
14116;SDS011;7137;51.436;6.544;2023-04-15T06:22:49;15.90;;;12.10;;
14116;SDS011;7137;51.436;6.544;2023-04-15T06:25:51;14.77;;;12.27;;
14116;SDS011;7137;51.436;6.544;2023-04-15T06:28:52;14.67;;;12.30;;
14116;SDS011;7137;51.436;6.544;2023-04-15T06:31:56;14.37;;;12.37;;
14116;SDS011;7137;51.436;6.544;2023-04-15T06:34:57;15.30;;;13.57;;
14116;SDS011;7137;51.436;6.544;2023-04-15T06:37:59;14.40;;;12.90;;
14116;SDS011;7137;51.436;6.544;2023-04-15T06:41:01;16.00;;;13.63;;
14116;SDS011;7137;51.436;6.544;2023-04-15T06:44:03;16.07;;;13.97;;
14116;SDS011;7137;51.436;6.544;2023-04-15T06:47:06;16.00;;;14.03;;
14116;SDS011;7137;51.436;6.544;2023-04-15T06:50:09;16.43;;;14.57;;
14116;SDS011;7137;51.436;6.544;2023-04-15T06:53:10;15.13;;;13.63;;
14116;SDS011;7137;51.436;6.544;2023-04-15T06:56:12;14.73;;;13.17;;
14116;SDS011;7137;51.436;6.544;2023-04-15T06:59:14;16.17;;;12.37;;
14116;SDS011;7137;51.436;6.544;2023-04-15T07:02:17;14.67;;;13.13;;
14116;SDS011;7137;51.436;6.544;2023-04-15T07:05:18;14.50;;;12.53;;
14116;SDS011;7137;51.436;6.544;2023-04-15T07:08:20;15.13;;;13.53;;
14116;SDS011;7137;51.436;6.544;2023-04-15T07:11:21;13.70;;;12.17;;
14116;SDS011;7137;51.436;6.544;2023-04-15T07:14:23;14.03;;;12.53;;
14116;SDS011;7137;51.436;6.544;2023-04-15T07:17:26;14.80;;;12.60;;
14116;SDS011;7137;51.436;6.544;2023-04-15T07:20:28;14.87;;;12.03;;
14116;SDS011;7137;51.436;6.544;2023-04-15T07:23:29;13.77;;;12.23;;
14116;SDS011;7137;51.436;6.544;2023-04-15T07:26:31;13.50;;;12.10;;
14116;SDS011;7137;51.436;6.544;2023-04-15T07:29:33;14.93;;;12.87;;
14116;SDS011;7137;51.436;6.544;2023-04-15T07:32:36;13.93;;;12.43;;
14116;SDS011;7137;51.436;6.544;2023-04-15T07:35:38;13.40;;;12.00;;
14116;SDS011;7137;51.436;6.544;2023-04-15T07:38:40;13.00;;;11.67;;
14116;SDS011;7137;51.436;6.544;2023-04-15T07:41:42;14.73;;;11.97;;
14116;SDS011;7137;51.436;6.544;2023-04-15T07:44:44;12.77;;;10.30;;
14116;SDS011;7137;51.436;6.544;2023-04-15T07:47:47;12.37;;;9.90;;
14116;SDS011;7137;51.436;6.544;2023-04-15T07:50:49;10.00;;;8.87;;
14116;SDS011;7137;51.436;6.544;2023-04-15T07:53:51;9.70;;;8.53;;
14116;SDS011;7137;51.436;6.544;2023-04-15T07:56:54;8.00;;;6.90;;
14116;SDS011;7137;51.436;6.544;2023-04-15T07:59:56;8.67;;;7.20;;
14116;SDS011;7137;51.436;6.544;2023-04-15T08:02:59;8.53;;;6.90;;
14116;SDS011;7137;51.436;6.544;2023-04-15T08:06:01;8.13;;;5.50;;
14116;SDS011;7137;51.436;6.544;2023-04-15T08:09:03;5.33;;;3.80;;
14116;SDS011;7137;51.436;6.544;2023-04-15T08:12:04;6.47;;;4.20;;
14116;SDS011;7137;51.436;6.544;2023-04-15T08:15:08;5.93;;;4.23;;
14116;SDS011;7137;51.436;6.544;2023-04-15T08:18:13;6.67;;;4.17;;
14116;SDS011;7137;51.436;6.544;2023-04-15T08:21:15;5.60;;;4.60;;
14116;SDS011;7137;51.436;6.544;2023-04-15T08:24:17;7.07;;;4.90;;
14116;SDS011;7137;51.436;6.544;2023-04-15T08:27:22;6.97;;;4.77;;
14116;SDS011;7137;51.436;6.544;2023-04-15T08:30:50;7.27;;;4.60;;
14116;SDS011;7137;51.436;6.544;2023-04-15T08:33:54;7.00;;;5.00;;
14116;SDS011;7137;51.436;6.544;2023-04-15T08:37:00;6.30;;;4.87;;
14116;SDS011;7137;51.436;6.544;2023-04-15T08:40:11;5.57;;;4.10;;
14116;SDS011;7137;51.436;6.544;2023-04-15T08:43:17;5.70;;;3.67;;
14116;SDS011;7137;51.436;6.544;2023-04-15T08:46:23;5.63;;;3.30;;
14116;SDS011;7137;51.436;6.544;2023-04-15T08:49:29;5.00;;;3.40;;
14116;SDS011;7137;51.436;6.544;2023-04-15T08:52:36;5.17;;;3.80;;
14116;SDS011;7137;51.436;6.544;2023-04-15T08:55:41;5.73;;;4.57;;
14116;SDS011;7137;51.436;6.544;2023-04-15T08:58:55;5.87;;;4.00;;
14116;SDS011;7137;51.436;6.544;2023-04-15T09:01:59;5.20;;;3.67;;
14116;SDS011;7137;51.436;6.544;2023-04-15T09:05:02;5.43;;;3.50;;
14116;SDS011;7137;51.436;6.544;2023-04-15T09:08:06;6.00;;;3.60;;
14116;SDS011;7137;51.436;6.544;2023-04-15T09:11:07;5.30;;;3.40;;
14116;SDS011;7137;51.436;6.544;2023-04-15T09:14:09;5.20;;;3.60;;
14116;SDS011;7137;51.436;6.544;2023-04-15T09:17:11;6.40;;;3.93;;
14116;SDS011;7137;51.436;6.544;2023-04-15T09:20:15;6.43;;;3.93;;
14116;SDS011;7137;51.436;6.544;2023-04-15T09:23:17;5.90;;;3.90;;
14116;SDS011;7137;51.436;6.544;2023-04-15T09:26:28;7.57;;;4.50;;
14116;SDS011;7137;51.436;6.544;2023-04-15T09:29:31;6.83;;;4.77;;
14116;SDS011;7137;51.436;6.544;2023-04-15T09:32:32;7.23;;;4.37;;
14116;SDS011;7137;51.436;6.544;2023-04-15T09:35:35;5.53;;;3.50;;
14116;SDS011;7137;51.436;6.544;2023-04-15T09:38:39;7.00;;;3.00;;
14116;SDS011;7137;51.436;6.544;2023-04-15T09:42:05;4.40;;;2.70;;
14116;SDS011;7137;51.436;6.544;2023-04-15T09:45:07;6.73;;;2.67;;
14116;SDS011;7137;51.436;6.544;2023-04-15T09:48:16;6.00;;;3.20;;
14116;SDS011;7137;51.436;6.544;2023-04-15T09:51:33;5.57;;;3.30;;
14116;SDS011;7137;51.436;6.544;2023-04-15T09:54:35;5.53;;;3.77;;
14116;SDS011;7137;51.436;6.544;2023-04-15T09:57:39;7.07;;;3.93;;
14116;SDS011;7137;51.436;6.544;2023-04-15T10:00:41;6.03;;;4.30;;
14116;SDS011;7137;51.436;6.544;2023-04-15T10:03:43;7.10;;;4.63;;
14116;SDS011;7137;51.436;6.544;2023-04-15T10:06:47;5.77;;;4.50;;
14116;SDS011;7137;51.436;6.544;2023-04-15T10:09:49;7.70;;;5.00;;
14116;SDS011;7137;51.436;6.544;2023-04-15T10:12:51;6.77;;;4.87;;
14116;SDS011;7137;51.436;6.544;2023-04-15T10:15:56;7.27;;;4.93;;
14116;SDS011;7137;51.436;6.544;2023-04-15T10:19:00;6.47;;;4.67;;
14116;SDS011;7137;51.436;6.544;2023-04-15T10:22:04;6.10;;;4.87;;
14116;SDS011;7137;51.436;6.544;2023-04-15T10:25:06;6.87;;;4.90;;
14116;SDS011;7137;51.436;6.544;2023-04-15T10:28:12;6.90;;;5.30;;
14116;SDS011;7137;51.436;6.544;2023-04-15T10:31:29;7.43;;;5.43;;
14116;SDS011;7137;51.436;6.544;2023-04-15T10:34:31;7.13;;;5.40;;
14116;SDS011;7137;51.436;6.544;2023-04-15T10:37:36;6.70;;;5.00;;
14116;SDS011;7137;51.436;6.544;2023-04-15T10:40:38;6.53;;;4.63;;
14116;SDS011;7137;51.436;6.544;2023-04-15T10:43:44;6.43;;;4.63;;
14116;SDS011;7137;51.436;6.544;2023-04-15T10:46:46;5.70;;;4.40;;
14116;SDS011;7137;51.436;6.544;2023-04-15T10:49:48;5.73;;;3.80;;
14116;SDS011;7137;51.436;6.544;2023-04-15T10:52:52;5.70;;;3.93;;
14116;SDS011;7137;51.436;6.544;2023-04-15T10:55:55;5.23;;;3.73;;
14116;SDS011;7137;51.436;6.544;2023-04-15T10:58:58;7.90;;;4.30;;
14116;SDS011;7137;51.436;6.544;2023-04-15T11:02:01;5.03;;;3.97;;
14116;SDS011;7137;51.436;6.544;2023-04-15T11:05:03;7.00;;;4.73;;
14116;SDS011;7137;51.436;6.544;2023-04-15T11:08:07;6.87;;;4.10;;
14116;SDS011;7137;51.436;6.544;2023-04-15T11:11:09;6.97;;;4.40;;
14116;SDS011;7137;51.436;6.544;2023-04-15T11:14:19;7.10;;;4.40;;
14116;SDS011;7137;51.436;6.544;2023-04-15T11:17:25;6.10;;;4.57;;
14116;SDS011;7137;51.436;6.544;2023-04-15T11:20:29;6.67;;;4.80;;
14116;SDS011;7137;51.436;6.544;2023-04-15T11:23:33;7.20;;;5.20;;
14116;SDS011;7137;51.436;6.544;2023-04-15T11:26:37;7.93;;;5.17;;
14116;SDS011;7137;51.436;6.544;2023-04-15T11:29:40;7.30;;;4.90;;
14116;SDS011;7137;51.436;6.544;2023-04-15T11:32:43;9.00;;;5.50;;
14116;SDS011;7137;51.436;6.544;2023-04-15T11:35:44;8.00;;;4.67;;
14116;SDS011;7137;51.436;6.544;2023-04-15T11:38:46;5.13;;;3.70;;
14116;SDS011;7137;51.436;6.544;2023-04-15T11:41:48;6.37;;;3.90;;
14116;SDS011;7137;51.436;6.544;2023-04-15T11:44:51;7.00;;;4.17;;
14116;SDS011;7137;51.436;6.544;2023-04-15T11:48:08;4.93;;;3.57;;
14116;SDS011;7137;51.436;6.544;2023-04-15T11:51:12;8.10;;;4.30;;
14116;SDS011;7137;51.436;6.544;2023-04-15T11:54:17;7.07;;;3.80;;
14116;SDS011;7137;51.436;6.544;2023-04-15T11:57:19;5.30;;;3.03;;
14116;SDS011;7137;51.436;6.544;2023-04-15T12:00:22;5.93;;;3.03;;
14116;SDS011;7137;51.436;6.544;2023-04-15T12:03:24;6.67;;;3.37;;
14116;SDS011;7137;51.436;6.544;2023-04-15T12:06:30;4.43;;;3.30;;
14116;SDS011;7137;51.436;6.544;2023-04-15T12:09:36;7.43;;;3.60;;
14116;SDS011;7137;51.436;6.544;2023-04-15T12:12:39;5.67;;;3.40;;
14116;SDS011;7137;51.436;6.544;2023-04-15T12:15:42;5.83;;;3.27;;
14116;SDS011;7137;51.436;6.544;2023-04-15T12:18:45;5.90;;;3.63;;
14116;SDS011;7137;51.436;6.544;2023-04-15T12:21:47;5.43;;;3.60;;
14116;SDS011;7137;51.436;6.544;2023-04-15T12:24:54;6.10;;;3.77;;
14116;SDS011;7137;51.436;6.544;2023-04-15T12:27:56;5.80;;;3.60;;
14116;SDS011;7137;51.436;6.544;2023-04-15T12:30:59;4.87;;;3.50;;
14116;SDS011;7137;51.436;6.544;2023-04-15T12:34:07;5.53;;;3.70;;
14116;SDS011;7137;51.436;6.544;2023-04-15T12:37:09;5.20;;;3.73;;
14116;SDS011;7137;51.436;6.544;2023-04-15T12:40:13;6.30;;;3.90;;
14116;SDS011;7137;51.436;6.544;2023-04-15T12:43:15;5.40;;;3.90;;
14116;SDS011;7137;51.436;6.544;2023-04-15T12:46:18;5.70;;;3.97;;
14116;SDS011;7137;51.436;6.544;2023-04-15T12:49:20;5.53;;;3.57;;
14116;SDS011;7137;51.436;6.544;2023-04-15T12:52:23;5.40;;;3.60;;
14116;SDS011;7137;51.436;6.544;2023-04-15T12:55:24;4.83;;;3.27;;
14116;SDS011;7137;51.436;6.544;2023-04-15T12:58:26;5.27;;;2.60;;
14116;SDS011;7137;51.436;6.544;2023-04-15T13:01:29;4.53;;;2.80;;
14116;SDS011;7137;51.436;6.544;2023-04-15T13:04:31;5.37;;;2.80;;
14116;SDS011;7137;51.436;6.544;2023-04-15T13:07:33;4.60;;;2.73;;
14116;SDS011;7137;51.436;6.544;2023-04-15T13:10:34;4.77;;;2.67;;
14116;SDS011;7137;51.436;6.544;2023-04-15T13:13:36;5.70;;;3.20;;
14116;SDS011;7137;51.436;6.544;2023-04-15T13:16:39;5.80;;;3.20;;
14116;SDS011;7137;51.436;6.544;2023-04-15T13:19:41;4.77;;;3.00;;
14116;SDS011;7137;51.436;6.544;2023-04-15T13:22:42;4.43;;;2.73;;
14116;SDS011;7137;51.436;6.544;2023-04-15T13:25:44;6.83;;;3.03;;
14116;SDS011;7137;51.436;6.544;2023-04-15T13:28:46;6.30;;;3.67;;
14116;SDS011;7137;51.436;6.544;2023-04-15T13:31:48;5.00;;;2.93;;
14116;SDS011;7137;51.436;6.544;2023-04-15T13:34:50;5.07;;;3.20;;
14116;SDS011;7137;51.436;6.544;2023-04-15T13:37:53;4.50;;;3.17;;
14116;SDS011;7137;51.436;6.544;2023-04-15T13:40:55;6.47;;;3.47;;
14116;SDS011;7137;51.436;6.544;2023-04-15T13:43:56;6.07;;;3.43;;
14116;SDS011;7137;51.436;6.544;2023-04-15T13:46:59;5.90;;;3.53;;
14116;SDS011;7137;51.436;6.544;2023-04-15T13:50:01;4.83;;;3.40;;
14116;SDS011;7137;51.436;6.544;2023-04-15T13:53:03;5.73;;;3.60;;
14116;SDS011;7137;51.436;6.544;2023-04-15T13:56:05;5.77;;;3.50;;
14116;SDS011;7137;51.436;6.544;2023-04-15T13:59:07;6.77;;;3.60;;
14116;SDS011;7137;51.436;6.544;2023-04-15T14:02:10;6.97;;;3.80;;
14116;SDS011;7137;51.436;6.544;2023-04-15T14:05:12;7.53;;;3.70;;
14116;SDS011;7137;51.436;6.544;2023-04-15T14:08:14;5.70;;;3.23;;
14116;SDS011;7137;51.436;6.544;2023-04-15T14:11:16;4.40;;;2.57;;
14116;SDS011;7137;51.436;6.544;2023-04-15T14:14:17;6.40;;;3.07;;
14116;SDS011;7137;51.436;6.544;2023-04-15T14:17:20;4.60;;;2.90;;
14116;SDS011;7137;51.436;6.544;2023-04-15T14:20:22;4.17;;;2.87;;
14116;SDS011;7137;51.436;6.544;2023-04-15T14:23:24;5.67;;;2.80;;
14116;SDS011;7137;51.436;6.544;2023-04-15T14:26:25;5.90;;;2.93;;
14116;SDS011;7137;51.436;6.544;2023-04-15T14:29:27;4.87;;;2.60;;
14116;SDS011;7137;51.436;6.544;2023-04-15T14:32:31;5.13;;;2.50;;
14116;SDS011;7137;51.436;6.544;2023-04-15T14:35:33;4.47;;;2.40;;
14116;SDS011;7137;51.436;6.544;2023-04-15T14:38:34;4.27;;;2.30;;
14116;SDS011;7137;51.436;6.544;2023-04-15T14:41:37;4.57;;;2.20;;
14116;SDS011;7137;51.436;6.544;2023-04-15T14:44:39;6.10;;;2.43;;
14116;SDS011;7137;51.436;6.544;2023-04-15T14:47:42;4.20;;;2.37;;
14116;SDS011;7137;51.436;6.544;2023-04-15T14:50:43;4.13;;;2.37;;
14116;SDS011;7137;51.436;6.544;2023-04-15T14:53:46;5.43;;;2.00;;
14116;SDS011;7137;51.436;6.544;2023-04-15T14:56:47;5.77;;;2.43;;
14116;SDS011;7137;51.436;6.544;2023-04-15T14:59:49;5.90;;;2.33;;
14116;SDS011;7137;51.436;6.544;2023-04-15T15:02:56;4.40;;;2.10;;
14116;SDS011;7137;51.436;6.544;2023-04-15T15:05:58;3.77;;;1.90;;
14116;SDS011;7137;51.436;6.544;2023-04-15T15:09:00;5.13;;;2.23;;
14116;SDS011;7137;51.436;6.544;2023-04-15T15:12:02;5.23;;;2.00;;
14116;SDS011;7137;51.436;6.544;2023-04-15T15:15:04;4.73;;;1.77;;
14116;SDS011;7137;51.436;6.544;2023-04-15T15:18:07;3.73;;;1.90;;
14116;SDS011;7137;51.436;6.544;2023-04-15T15:21:10;3.33;;;1.70;;
14116;SDS011;7137;51.436;6.544;2023-04-15T15:24:12;3.07;;;1.80;;
14116;SDS011;7137;51.436;6.544;2023-04-15T15:27:13;5.57;;;1.83;;
14116;SDS011;7137;51.436;6.544;2023-04-15T15:30:15;3.63;;;1.70;;
14116;SDS011;7137;51.436;6.544;2023-04-15T15:33:18;3.53;;;1.40;;
14116;SDS011;7137;51.436;6.544;2023-04-15T15:36:19;3.17;;;1.57;;
14116;SDS011;7137;51.436;6.544;2023-04-15T15:39:21;3.53;;;1.70;;
14116;SDS011;7137;51.436;6.544;2023-04-15T15:42:23;2.93;;;1.60;;
14116;SDS011;7137;51.436;6.544;2023-04-15T15:45:25;3.47;;;1.80;;
14116;SDS011;7137;51.436;6.544;2023-04-15T15:48:28;3.13;;;1.70;;
14116;SDS011;7137;51.436;6.544;2023-04-15T15:51:30;3.63;;;1.60;;
14116;SDS011;7137;51.436;6.544;2023-04-15T15:54:32;3.70;;;1.87;;
14116;SDS011;7137;51.436;6.544;2023-04-15T15:57:34;4.50;;;2.10;;
14116;SDS011;7137;51.436;6.544;2023-04-15T16:00:36;3.73;;;1.90;;
14116;SDS011;7137;51.436;6.544;2023-04-15T16:03:39;3.63;;;1.90;;
14116;SDS011;7137;51.436;6.544;2023-04-15T16:06:40;3.13;;;1.70;;
14116;SDS011;7137;51.436;6.544;2023-04-15T16:09:43;4.83;;;2.00;;
14116;SDS011;7137;51.436;6.544;2023-04-15T16:12:45;3.10;;;1.50;;
14116;SDS011;7137;51.436;6.544;2023-04-15T16:15:46;2.67;;;1.80;;
14116;SDS011;7137;51.436;6.544;2023-04-15T16:18:50;3.77;;;2.00;;
14116;SDS011;7137;51.436;6.544;2023-04-15T16:21:52;3.77;;;2.10;;
14116;SDS011;7137;51.436;6.544;2023-04-15T16:24:54;3.57;;;2.00;;
14116;SDS011;7137;51.436;6.544;2023-04-15T16:27:55;4.10;;;1.90;;
14116;SDS011;7137;51.436;6.544;2023-04-15T16:30:57;4.63;;;1.90;;
14116;SDS011;7137;51.436;6.544;2023-04-15T16:34:00;4.13;;;2.20;;
14116;SDS011;7137;51.436;6.544;2023-04-15T16:37:02;5.03;;;2.17;;
14116;SDS011;7137;51.436;6.544;2023-04-15T16:40:05;3.47;;;1.90;;
14116;SDS011;7137;51.436;6.544;2023-04-15T16:43:07;4.77;;;2.17;;
14116;SDS011;7137;51.436;6.544;2023-04-15T16:46:10;4.57;;;2.07;;
14116;SDS011;7137;51.436;6.544;2023-04-15T16:49:13;3.50;;;2.00;;
14116;SDS011;7137;51.436;6.544;2023-04-15T16:52:14;5.37;;;2.43;;
14116;SDS011;7137;51.436;6.544;2023-04-15T16:55:16;5.93;;;2.20;;
14116;SDS011;7137;51.436;6.544;2023-04-15T16:58:18;6.87;;;2.43;;
14116;SDS011;7137;51.436;6.544;2023-04-15T17:01:19;6.73;;;2.40;;
14116;SDS011;7137;51.436;6.544;2023-04-15T17:04:22;4.70;;;2.40;;
14116;SDS011;7137;51.436;6.544;2023-04-15T17:07:24;5.73;;;2.70;;
14116;SDS011;7137;51.436;6.544;2023-04-15T17:10:26;5.57;;;2.53;;
14116;SDS011;7137;51.436;6.544;2023-04-15T17:13:28;5.60;;;2.50;;
14116;SDS011;7137;51.436;6.544;2023-04-15T17:16:30;7.30;;;4.20;;
14116;SDS011;7137;51.436;6.544;2023-04-15T17:19:33;7.70;;;3.27;;
14116;SDS011;7137;51.436;6.544;2023-04-15T17:22:35;7.20;;;3.40;;
14116;SDS011;7137;51.436;6.544;2023-04-15T17:25:36;9.33;;;5.23;;
14116;SDS011;7137;51.436;6.544;2023-04-15T17:28:38;6.90;;;2.93;;
14116;SDS011;7137;51.436;6.544;2023-04-15T17:31:39;8.10;;;4.10;;
14116;SDS011;7137;51.436;6.544;2023-04-15T17:34:43;10.03;;;5.10;;
14116;SDS011;7137;51.436;6.544;2023-04-15T17:37:44;21.70;;;13.30;;
14116;SDS011;7137;51.436;6.544;2023-04-15T17:40:46;6.47;;;3.83;;
14116;SDS011;7137;51.436;6.544;2023-04-15T17:43:48;5.67;;;2.73;;
14116;SDS011;7137;51.436;6.544;2023-04-15T17:46:49;8.30;;;2.90;;
14116;SDS011;7137;51.436;6.544;2023-04-15T17:49:52;9.53;;;3.03;;
14116;SDS011;7137;51.436;6.544;2023-04-15T17:52:54;7.47;;;2.57;;
14116;SDS011;7137;51.436;6.544;2023-04-15T17:55:57;7.03;;;2.27;;
14116;SDS011;7137;51.436;6.544;2023-04-15T17:58:59;7.67;;;2.47;;
14116;SDS011;7137;51.436;6.544;2023-04-15T18:02:01;8.43;;;2.53;;
14116;SDS011;7137;51.436;6.544;2023-04-15T18:05:05;8.20;;;2.57;;
14116;SDS011;7137;51.436;6.544;2023-04-15T18:08:07;6.53;;;2.30;;
14116;SDS011;7137;51.436;6.544;2023-04-15T18:11:09;5.97;;;3.10;;
14116;SDS011;7137;51.436;6.544;2023-04-15T18:14:11;7.13;;;2.23;;
14116;SDS011;7137;51.436;6.544;2023-04-15T18:17:13;6.73;;;2.17;;
14116;SDS011;7137;51.436;6.544;2023-04-15T18:20:16;6.87;;;2.10;;
14116;SDS011;7137;51.436;6.544;2023-04-15T18:23:18;6.27;;;1.90;;
14116;SDS011;7137;51.436;6.544;2023-04-15T18:26:20;7.50;;;2.40;;